sensor_id;sensor_type;location;lat;lon;timestamp;temperature;humidity
21518;DHT22;61765;45.794;24.150;2022-08-19T00:03:45;27.90;88.40
21518;DHT22;61765;45.794;24.150;2022-08-19T00:07:51;28.00;88.50
21518;DHT22;61765;45.794;24.150;2022-08-19T00:11:59;27.80;88.80
21518;DHT22;61765;45.794;24.150;2022-08-19T00:16:05;27.60;89.60
21518;DHT22;61765;45.794;24.150;2022-08-19T00:20:14;27.50;89.40
21518;DHT22;61765;45.794;24.150;2022-08-19T00:24:21;27.50;89.70
21518;DHT22;61765;45.794;24.150;2022-08-19T00:28:30;27.40;89.50
21518;DHT22;61765;45.794;24.150;2022-08-19T00:32:37;27.00;90.00
21518;DHT22;61765;45.794;24.150;2022-08-19T00:36:43;27.10;90.00
21518;DHT22;61765;45.794;24.150;2022-08-19T00:40:48;27.10;90.20
21518;DHT22;61765;45.794;24.150;2022-08-19T00:44:56;27.20;90.10
21518;DHT22;61765;45.794;24.150;2022-08-19T00:49:06;27.10;90.30
21518;DHT22;61765;45.794;24.150;2022-08-19T00:53:19;27.00;90.20
21518;DHT22;61765;45.794;24.150;2022-08-19T00:57:28;27.00;90.50
21518;DHT22;61765;45.794;24.150;2022-08-19T01:01:39;26.80;90.60
21518;DHT22;61765;45.794;24.150;2022-08-19T01:05:47;26.60;90.70
21518;DHT22;61765;45.794;24.150;2022-08-19T01:09:53;26.80;90.70
21518;DHT22;61765;45.794;24.150;2022-08-19T01:13:59;26.80;90.80
21518;DHT22;61765;45.794;24.150;2022-08-19T01:18:10;26.90;91.00
21518;DHT22;61765;45.794;24.150;2022-08-19T01:22:27;26.80;91.00
21518;DHT22;61765;45.794;24.150;2022-08-19T01:26:40;26.80;91.30
21518;DHT22;61765;45.794;24.150;2022-08-19T01:30:48;26.40;91.60
21518;DHT22;61765;45.794;24.150;2022-08-19T01:34:53;26.40;91.80
21518;DHT22;61765;45.794;24.150;2022-08-19T01:39:05;26.20;91.80
21518;DHT22;61765;45.794;24.150;2022-08-19T01:43:11;26.30;91.90
21518;DHT22;61765;45.794;24.150;2022-08-19T01:47:17;26.10;92.00
21518;DHT22;61765;45.794;24.150;2022-08-19T01:51:22;26.20;91.90
21518;DHT22;61765;45.794;24.150;2022-08-19T01:55:31;26.10;92.10
21518;DHT22;61765;45.794;24.150;2022-08-19T01:59:43;26.20;91.90
21518;DHT22;61765;45.794;24.150;2022-08-19T02:03:49;26.30;91.90
21518;DHT22;61765;45.794;24.150;2022-08-19T02:07:58;26.30;92.00
21518;DHT22;61765;45.794;24.150;2022-08-19T02:12:07;25.80;92.40
21518;DHT22;61765;45.794;24.150;2022-08-19T02:16:12;25.70;92.80
21518;DHT22;61765;45.794;24.150;2022-08-19T02:20:18;25.90;93.00
21518;DHT22;61765;45.794;24.150;2022-08-19T02:24:25;25.80;92.60
21518;DHT22;61765;45.794;24.150;2022-08-19T02:28:33;26.00;92.50
21518;DHT22;61765;45.794;24.150;2022-08-19T02:32:39;25.90;92.30
21518;DHT22;61765;45.794;24.150;2022-08-19T02:36:46;26.00;92.10
21518;DHT22;61765;45.794;24.150;2022-08-19T02:40:55;26.10;92.20
21518;DHT22;61765;45.794;24.150;2022-08-19T02:45:04;26.00;92.10
21518;DHT22;61765;45.794;24.150;2022-08-19T02:49:10;25.90;92.40
21518;DHT22;61765;45.794;24.150;2022-08-19T02:53:18;26.00;92.30
21518;DHT22;61765;45.794;24.150;2022-08-19T02:57:24;25.90;92.30
21518;DHT22;61765;45.794;24.150;2022-08-19T03:01:33;25.90;92.60
21518;DHT22;61765;45.794;24.150;2022-08-19T03:05:39;25.50;93.00
21518;DHT22;61765;45.794;24.150;2022-08-19T03:09:50;25.60;92.90
21518;DHT22;61765;45.794;24.150;2022-08-19T03:13:56;25.60;92.80
21518;DHT22;61765;45.794;24.150;2022-08-19T03:18:05;25.60;92.70
21518;DHT22;61765;45.794;24.150;2022-08-19T03:22:11;25.50;92.80
21518;DHT22;61765;45.794;24.150;2022-08-19T03:26:16;25.40;92.90
21518;DHT22;61765;45.794;24.150;2022-08-19T03:30:22;25.40;93.00
21518;DHT22;61765;45.794;24.150;2022-08-19T03:34:31;25.40;93.10
21518;DHT22;61765;45.794;24.150;2022-08-19T03:38:39;25.20;93.00
21518;DHT22;61765;45.794;24.150;2022-08-19T03:42:45;25.20;93.20
21518;DHT22;61765;45.794;24.150;2022-08-19T03:46:55;25.20;93.20
21518;DHT22;61765;45.794;24.150;2022-08-19T03:51:04;25.30;93.10
21518;DHT22;61765;45.794;24.150;2022-08-19T03:55:09;25.10;93.10
21518;DHT22;61765;45.794;24.150;2022-08-19T03:59:19;25.20;93.30
21518;DHT22;61765;45.794;24.150;2022-08-19T04:03:28;24.90;93.60
21518;DHT22;61765;45.794;24.150;2022-08-19T04:07:36;25.00;93.40
21518;DHT22;61765;45.794;24.150;2022-08-19T04:11:43;24.80;93.50
21518;DHT22;61765;45.794;24.150;2022-08-19T04:15:49;24.80;93.70
21518;DHT22;61765;45.794;24.150;2022-08-19T04:19:54;24.90;93.60
21518;DHT22;61765;45.794;24.150;2022-08-19T04:24:04;24.80;93.80
21518;DHT22;61765;45.794;24.150;2022-08-19T04:28:12;24.70;93.80
21518;DHT22;61765;45.794;24.150;2022-08-19T04:32:17;24.80;93.90
21518;DHT22;61765;45.794;24.150;2022-08-19T04:36:25;24.90;93.70
21518;DHT22;61765;45.794;24.150;2022-08-19T04:40:34;25.20;93.30
21518;DHT22;61765;45.794;24.150;2022-08-19T04:45:01;25.20;93.20
21518;DHT22;61765;45.794;24.150;2022-08-19T04:49:10;25.40;92.70
21518;DHT22;61765;45.794;24.150;2022-08-19T04:53:16;25.40;92.70
21518;DHT22;61765;45.794;24.150;2022-08-19T04:57:24;25.70;92.40
21518;DHT22;61765;45.794;24.150;2022-08-19T05:01:31;25.70;92.20
21518;DHT22;61765;45.794;24.150;2022-08-19T05:05:39;25.80;92.10
21518;DHT22;61765;45.794;24.150;2022-08-19T05:09:46;25.80;92.10
21518;DHT22;61765;45.794;24.150;2022-08-19T05:14:02;25.70;92.30
21518;DHT22;61765;45.794;24.150;2022-08-19T05:18:08;25.20;92.70
21518;DHT22;61765;45.794;24.150;2022-08-19T05:22:25;25.00;93.20
21518;DHT22;61765;45.794;24.150;2022-08-19T05:26:37;25.30;93.60
21518;DHT22;61765;45.794;24.150;2022-08-19T05:30:46;25.60;92.70
21518;DHT22;61765;45.794;24.150;2022-08-19T05:34:53;26.40;92.20
21518;DHT22;61765;45.794;24.150;2022-08-19T05:38:58;27.00;91.50
21518;DHT22;61765;45.794;24.150;2022-08-19T05:43:04;27.10;91.00
21518;DHT22;61765;45.794;24.150;2022-08-19T05:47:13;26.90;91.10
21518;DHT22;61765;45.794;24.150;2022-08-19T05:51:22;27.20;91.10
21518;DHT22;61765;45.794;24.150;2022-08-19T05:55:30;27.50;90.70
21518;DHT22;61765;45.794;24.150;2022-08-19T05:59:35;28.10;89.40
21518;DHT22;61765;45.794;24.150;2022-08-19T06:03:45;28.10;88.40
21518;DHT22;61765;45.794;24.150;2022-08-19T06:07:50;27.70;90.00
21518;DHT22;61765;45.794;24.150;2022-08-19T06:11:58;27.90;89.00
21518;DHT22;61765;45.794;24.150;2022-08-19T06:16:05;27.90;89.50
21518;DHT22;61765;45.794;24.150;2022-08-19T06:20:14;28.40;88.20
21518;DHT22;61765;45.794;24.150;2022-08-19T06:24:41;28.30;88.30
21518;DHT22;61765;45.794;24.150;2022-08-19T06:28:47;28.70;87.70
21518;DHT22;61765;45.794;24.150;2022-08-19T06:32:53;28.90;87.60
21518;DHT22;61765;45.794;24.150;2022-08-19T06:37:01;29.40;85.70
21518;DHT22;61765;45.794;24.150;2022-08-19T06:41:07;29.80;85.60
21518;DHT22;61765;45.794;24.150;2022-08-19T06:45:13;30.40;84.10
21518;DHT22;61765;45.794;24.150;2022-08-19T06:49:25;30.70;82.80
21518;DHT22;61765;45.794;24.150;2022-08-19T06:53:36;30.50;82.60
21518;DHT22;61765;45.794;24.150;2022-08-19T06:57:41;30.30;82.30
21518;DHT22;61765;45.794;24.150;2022-08-19T07:01:49;30.60;81.80
21518;DHT22;61765;45.794;24.150;2022-08-19T07:05:54;31.00;81.10
21518;DHT22;61765;45.794;24.150;2022-08-19T07:10:06;31.30;80.20
21518;DHT22;61765;45.794;24.150;2022-08-19T07:14:12;31.00;80.20
21518;DHT22;61765;45.794;24.150;2022-08-19T07:18:21;30.90;80.30
21518;DHT22;61765;45.794;24.150;2022-08-19T07:22:28;31.60;80.10
21518;DHT22;61765;45.794;24.150;2022-08-19T07:26:39;31.80;78.30
21518;DHT22;61765;45.794;24.150;2022-08-19T07:30:45;32.30;77.50
21518;DHT22;61765;45.794;24.150;2022-08-19T07:34:54;32.00;78.20
21518;DHT22;61765;45.794;24.150;2022-08-19T07:39:02;32.30;76.80
21518;DHT22;61765;45.794;24.150;2022-08-19T07:43:11;32.10;77.30
21518;DHT22;61765;45.794;24.150;2022-08-19T07:47:19;32.60;76.70
21518;DHT22;61765;45.794;24.150;2022-08-19T07:51:45;32.90;74.00
21518;DHT22;61765;45.794;24.150;2022-08-19T07:55:51;33.00;73.40
21518;DHT22;61765;45.794;24.150;2022-08-19T07:59:59;32.30;75.10
21518;DHT22;61765;45.794;24.150;2022-08-19T08:04:13;32.60;73.40
21518;DHT22;61765;45.794;24.150;2022-08-19T08:08:31;32.50;72.90
21518;DHT22;61765;45.794;24.150;2022-08-19T08:12:50;32.80;73.40
21518;DHT22;61765;45.794;24.150;2022-08-19T08:17:15;33.20;71.90
21518;DHT22;61765;45.794;24.150;2022-08-19T08:21:41;32.80;71.70
21518;DHT22;61765;45.794;24.150;2022-08-19T08:25:48;33.20;70.80
21518;DHT22;61765;45.794;24.150;2022-08-19T08:29:53;33.40;70.00
21518;DHT22;61765;45.794;24.150;2022-08-19T08:34:01;33.20;71.20
21518;DHT22;61765;45.794;24.150;2022-08-19T08:38:07;33.40;69.90
21518;DHT22;61765;45.794;24.150;2022-08-19T08:42:17;33.90;68.00
21518;DHT22;61765;45.794;24.150;2022-08-19T08:46:29;33.90;69.80
21518;DHT22;61765;45.794;24.150;2022-08-19T08:50:40;33.90;67.40
21518;DHT22;61765;45.794;24.150;2022-08-19T08:54:48;34.00;65.20
21518;DHT22;61765;45.794;24.150;2022-08-19T08:59:00;34.30;66.40
21518;DHT22;61765;45.794;24.150;2022-08-19T09:03:18;34.50;64.70
21518;DHT22;61765;45.794;24.150;2022-08-19T09:07:39;34.00;64.60
21518;DHT22;61765;45.794;24.150;2022-08-19T09:11:58;34.10;64.00
21518;DHT22;61765;45.794;24.150;2022-08-19T09:16:16;34.10;63.60
21518;DHT22;61765;45.794;24.150;2022-08-19T09:20:29;33.90;65.80
21518;DHT22;61765;45.794;24.150;2022-08-19T09:24:38;34.00;64.80
21518;DHT22;61765;45.794;24.150;2022-08-19T09:28:46;34.30;64.60
21518;DHT22;61765;45.794;24.150;2022-08-19T09:32:53;34.70;64.40
21518;DHT22;61765;45.794;24.150;2022-08-19T09:36:58;34.60;62.80
21518;DHT22;61765;45.794;24.150;2022-08-19T09:41:10;34.50;64.50
21518;DHT22;61765;45.794;24.150;2022-08-19T09:45:18;34.90;63.00
21518;DHT22;61765;45.794;24.150;2022-08-19T09:49:25;34.70;63.30
21518;DHT22;61765;45.794;24.150;2022-08-19T09:53:31;34.40;64.00
21518;DHT22;61765;45.794;24.150;2022-08-19T09:57:41;34.40;63.60
21518;DHT22;61765;45.794;24.150;2022-08-19T10:01:46;34.90;63.20
21518;DHT22;61765;45.794;24.150;2022-08-19T10:05:53;35.50;61.70
21518;DHT22;61765;45.794;24.150;2022-08-19T10:09:59;35.20;60.00
21518;DHT22;61765;45.794;24.150;2022-08-19T10:14:07;35.90;59.50
21518;DHT22;61765;45.794;24.150;2022-08-19T10:18:14;36.40;60.70
21518;DHT22;61765;45.794;24.150;2022-08-19T10:22:20;36.80;59.50
21518;DHT22;61765;45.794;24.150;2022-08-19T10:26:28;37.10;57.30
21518;DHT22;61765;45.794;24.150;2022-08-19T10:30:37;37.60;57.40
21518;DHT22;61765;45.794;24.150;2022-08-19T10:34:43;38.00;56.50
21518;DHT22;61765;45.794;24.150;2022-08-19T10:38:52;38.60;55.10
21518;DHT22;61765;45.794;24.150;2022-08-19T10:42:59;38.90;53.20
21518;DHT22;61765;45.794;24.150;2022-08-19T10:47:07;39.00;53.70
21518;DHT22;61765;45.794;24.150;2022-08-19T10:51:26;39.10;53.30
21518;DHT22;61765;45.794;24.150;2022-08-19T10:55:52;39.40;53.60
21518;DHT22;61765;45.794;24.150;2022-08-19T11:00:12;39.80;52.00
21518;DHT22;61765;45.794;24.150;2022-08-19T11:04:21;40.60;50.60
21518;DHT22;61765;45.794;24.150;2022-08-19T11:08:31;42.30;49.50
21518;DHT22;61765;45.794;24.150;2022-08-19T11:12:37;47.60;43.60
21518;DHT22;61765;45.794;24.150;2022-08-19T11:16:44;51.90;40.00
21518;DHT22;61765;45.794;24.150;2022-08-19T11:20:52;55.80;35.40
21518;DHT22;61765;45.794;24.150;2022-08-19T11:24:57;59.40;33.20
21518;DHT22;61765;45.794;24.150;2022-08-19T11:29:03;62.40;30.30
21518;DHT22;61765;45.794;24.150;2022-08-19T11:33:13;64.20;29.20
21518;DHT22;61765;45.794;24.150;2022-08-19T11:37:21;65.20;28.10
21518;DHT22;61765;45.794;24.150;2022-08-19T11:41:27;65.70;27.30
21518;DHT22;61765;45.794;24.150;2022-08-19T11:45:32;65.00;27.00
21518;DHT22;61765;45.794;24.150;2022-08-19T11:49:38;64.50;27.70
21518;DHT22;61765;45.794;24.150;2022-08-19T11:53:46;64.90;27.20
21518;DHT22;61765;45.794;24.150;2022-08-19T11:57:52;65.30;27.20
21518;DHT22;61765;45.794;24.150;2022-08-19T12:01:57;65.50;27.20
21518;DHT22;61765;45.794;24.150;2022-08-19T12:06:04;67.20;26.40
21518;DHT22;61765;45.794;24.150;2022-08-19T12:10:13;68.70;26.10
21518;DHT22;61765;45.794;24.150;2022-08-19T12:14:20;69.80;25.60
21518;DHT22;61765;45.794;24.150;2022-08-19T12:18:26;70.40;25.10
21518;DHT22;61765;45.794;24.150;2022-08-19T12:22:32;70.10;24.80
21518;DHT22;61765;45.794;24.150;2022-08-19T12:26:40;70.40;24.90
21518;DHT22;61765;45.794;24.150;2022-08-19T12:30:58;70.60;24.60
21518;DHT22;61765;45.794;24.150;2022-08-19T12:35:04;70.90;24.50
21518;DHT22;61765;45.794;24.150;2022-08-19T12:39:11;71.40;24.30
21518;DHT22;61765;45.794;24.150;2022-08-19T12:43:19;71.40;24.40
21518;DHT22;61765;45.794;24.150;2022-08-19T12:47:24;72.00;24.20
21518;DHT22;61765;45.794;24.150;2022-08-19T12:51:33;71.90;23.70
21518;DHT22;61765;45.794;24.150;2022-08-19T12:55:38;71.80;23.80
21518;DHT22;61765;45.794;24.150;2022-08-19T12:59:47;71.60;23.90
21518;DHT22;61765;45.794;24.150;2022-08-19T13:03:52;71.80;23.90
21518;DHT22;61765;45.794;24.150;2022-08-19T13:07:58;71.80;23.30
21518;DHT22;61765;45.794;24.150;2022-08-19T13:12:05;70.30;23.50
21518;DHT22;61765;45.794;24.150;2022-08-19T13:16:18;66.00;24.40
21518;DHT22;61765;45.794;24.150;2022-08-19T13:20:26;60.40;26.10
21518;DHT22;61765;45.794;24.150;2022-08-19T13:24:31;55.80;28.10
21518;DHT22;61765;45.794;24.150;2022-08-19T13:28:40;52.20;29.80
21518;DHT22;61765;45.794;24.150;2022-08-19T13:33:00;49.40;32.60
21518;DHT22;61765;45.794;24.150;2022-08-19T13:37:19;46.90;34.50
21518;DHT22;61765;45.794;24.150;2022-08-19T13:41:45;44.90;36.80
21518;DHT22;61765;45.794;24.150;2022-08-19T13:45:53;43.40;38.00
21518;DHT22;61765;45.794;24.150;2022-08-19T13:50:02;42.40;39.20
21518;DHT22;61765;45.794;24.150;2022-08-19T13:54:08;41.70;41.10
21518;DHT22;61765;45.794;24.150;2022-08-19T13:58:14;41.30;41.60
21518;DHT22;61765;45.794;24.150;2022-08-19T14:02:20;40.80;42.90
21518;DHT22;61765;45.794;24.150;2022-08-19T14:06:28;40.30;42.70
21518;DHT22;61765;45.794;24.150;2022-08-19T14:10:33;39.70;43.80
21518;DHT22;61765;45.794;24.150;2022-08-19T14:14:39;39.30;44.30
21518;DHT22;61765;45.794;24.150;2022-08-19T14:18:44;38.90;44.50
21518;DHT22;61765;45.794;24.150;2022-08-19T14:22:53;38.90;44.80
21518;DHT22;61765;45.794;24.150;2022-08-19T14:26:59;39.00;45.00
21518;DHT22;61765;45.794;24.150;2022-08-19T14:31:06;38.90;44.60
21518;DHT22;61765;45.794;24.150;2022-08-19T14:35:12;38.60;44.80
21518;DHT22;61765;45.794;24.150;2022-08-19T14:39:21;38.60;45.00
21518;DHT22;61765;45.794;24.150;2022-08-19T14:43:26;38.70;45.00
21518;DHT22;61765;45.794;24.150;2022-08-19T14:47:32;38.60;45.00
21518;DHT22;61765;45.794;24.150;2022-08-19T14:51:40;38.60;45.70
21518;DHT22;61765;45.794;24.150;2022-08-19T14:55:50;38.60;45.90
21518;DHT22;61765;45.794;24.150;2022-08-19T14:59:56;38.50;46.30
21518;DHT22;61765;45.794;24.150;2022-08-19T15:04:02;38.40;46.50
21518;DHT22;61765;45.794;24.150;2022-08-19T15:08:08;38.30;46.80
21518;DHT22;61765;45.794;24.150;2022-08-19T15:12:16;38.10;47.30
21518;DHT22;61765;45.794;24.150;2022-08-19T15:16:24;37.80;47.80
21518;DHT22;61765;45.794;24.150;2022-08-19T15:20:30;37.70;48.30
21518;DHT22;61765;45.794;24.150;2022-08-19T15:24:36;37.50;48.60
21518;DHT22;61765;45.794;24.150;2022-08-19T15:28:52;37.50;49.10
21518;DHT22;61765;45.794;24.150;2022-08-19T15:32:57;37.00;49.30
21518;DHT22;61765;45.794;24.150;2022-08-19T15:37:03;36.70;49.90
21518;DHT22;61765;45.794;24.150;2022-08-19T15:41:16;36.70;50.10
21518;DHT22;61765;45.794;24.150;2022-08-19T15:45:30;36.80;50.30
21518;DHT22;61765;45.794;24.150;2022-08-19T15:49:36;36.80;50.10
21518;DHT22;61765;45.794;24.150;2022-08-19T15:53:42;36.70;50.30
21518;DHT22;61765;45.794;24.150;2022-08-19T15:57:47;36.60;50.30
21518;DHT22;61765;45.794;24.150;2022-08-19T16:02:07;36.50;50.80
21518;DHT22;61765;45.794;24.150;2022-08-19T16:06:33;36.40;51.10
21518;DHT22;61765;45.794;24.150;2022-08-19T16:10:39;36.30;51.30
21518;DHT22;61765;45.794;24.150;2022-08-19T16:14:45;36.30;51.30
21518;DHT22;61765;45.794;24.150;2022-08-19T16:18:54;36.00;51.80
21518;DHT22;61765;45.794;24.150;2022-08-19T16:22:59;35.90;51.90
21518;DHT22;61765;45.794;24.150;2022-08-19T16:27:06;35.80;52.10
21518;DHT22;61765;45.794;24.150;2022-08-19T16:31:13;35.60;52.20
21518;DHT22;61765;45.794;24.150;2022-08-19T16:35:21;35.60;52.10
21518;DHT22;61765;45.794;24.150;2022-08-19T16:39:27;35.60;52.10
21518;DHT22;61765;45.794;24.150;2022-08-19T16:43:33;35.50;52.20
21518;DHT22;61765;45.794;24.150;2022-08-19T16:47:41;35.50;52.10
21518;DHT22;61765;45.794;24.150;2022-08-19T16:51:49;35.60;52.30
21518;DHT22;61765;45.794;24.150;2022-08-19T16:55:55;35.60;52.80
21518;DHT22;61765;45.794;24.150;2022-08-19T17:00:00;35.60;52.50
21518;DHT22;61765;45.794;24.150;2022-08-19T17:04:10;35.60;52.80
21518;DHT22;61765;45.794;24.150;2022-08-19T17:08:19;35.60;53.00
21518;DHT22;61765;45.794;24.150;2022-08-19T17:12:25;35.60;52.80
21518;DHT22;61765;45.794;24.150;2022-08-19T17:16:35;35.60;52.80
21518;DHT22;61765;45.794;24.150;2022-08-19T17:20:41;35.40;53.10
21518;DHT22;61765;45.794;24.150;2022-08-19T17:24:50;35.30;52.90
21518;DHT22;61765;45.794;24.150;2022-08-19T17:28:59;35.30;53.40
21518;DHT22;61765;45.794;24.150;2022-08-19T17:33:05;35.20;53.50
21518;DHT22;61765;45.794;24.150;2022-08-19T17:37:11;35.20;53.40
21518;DHT22;61765;45.794;24.150;2022-08-19T17:41:20;35.10;53.60
21518;DHT22;61765;45.794;24.150;2022-08-19T17:45:25;35.00;53.80
21518;DHT22;61765;45.794;24.150;2022-08-19T17:49:31;34.90;54.00
21518;DHT22;61765;45.794;24.150;2022-08-19T17:53:38;34.80;54.20
21518;DHT22;61765;45.794;24.150;2022-08-19T17:57:46;34.80;54.60
21518;DHT22;61765;45.794;24.150;2022-08-19T18:01:52;34.70;55.50
21518;DHT22;61765;45.794;24.150;2022-08-19T18:05:58;34.50;56.80
21518;DHT22;61765;45.794;24.150;2022-08-19T18:10:04;34.30;57.20
21518;DHT22;61765;45.794;24.150;2022-08-19T18:14:12;34.20;58.20
21518;DHT22;61765;45.794;24.150;2022-08-19T18:18:17;33.90;59.00
21518;DHT22;61765;45.794;24.150;2022-08-19T18:22:25;33.70;59.60
21518;DHT22;61765;45.794;24.150;2022-08-19T18:26:31;33.50;59.80
21518;DHT22;61765;45.794;24.150;2022-08-19T18:30:40;33.40;60.10
21518;DHT22;61765;45.794;24.150;2022-08-19T18:34:45;33.30;61.00
21518;DHT22;61765;45.794;24.150;2022-08-19T18:38:50;33.10;61.30
21518;DHT22;61765;45.794;24.150;2022-08-19T18:43:10;32.90;61.30
21518;DHT22;61765;45.794;24.150;2022-08-19T18:47:30;32.80;61.70
21518;DHT22;61765;45.794;24.150;2022-08-19T18:51:49;32.70;62.00
21518;DHT22;61765;45.794;24.150;2022-08-19T18:55:55;32.60;62.10
21518;DHT22;61765;45.794;24.150;2022-08-19T19:00:01;32.60;62.30
21518;DHT22;61765;45.794;24.150;2022-08-19T19:04:09;32.60;62.50
21518;DHT22;61765;45.794;24.150;2022-08-19T19:08:14;32.50;62.60
21518;DHT22;61765;45.794;24.150;2022-08-19T19:12:20;32.50;62.80
21518;DHT22;61765;45.794;24.150;2022-08-19T19:16:30;32.40;63.20
21518;DHT22;61765;45.794;24.150;2022-08-19T19:20:38;32.40;63.50
21518;DHT22;61765;45.794;24.150;2022-08-19T19:24:43;32.30;63.90
21518;DHT22;61765;45.794;24.150;2022-08-19T19:28:49;32.20;64.00
21518;DHT22;61765;45.794;24.150;2022-08-19T19:32:56;32.00;64.30
21518;DHT22;61765;45.794;24.150;2022-08-19T19:37:05;32.00;64.50
21518;DHT22;61765;45.794;24.150;2022-08-19T19:41:11;31.90;64.60
21518;DHT22;61765;45.794;24.150;2022-08-19T19:45:18;31.90;64.60
21518;DHT22;61765;45.794;24.150;2022-08-19T19:49:23;31.90;64.90
21518;DHT22;61765;45.794;24.150;2022-08-19T19:53:31;31.80;65.10
21518;DHT22;61765;45.794;24.150;2022-08-19T19:57:37;31.70;65.10
21518;DHT22;61765;45.794;24.150;2022-08-19T20:01:43;31.60;65.30
21518;DHT22;61765;45.794;24.150;2022-08-19T20:05:50;31.60;65.70
21518;DHT22;61765;45.794;24.150;2022-08-19T20:09:58;31.50;66.00
21518;DHT22;61765;45.794;24.150;2022-08-19T20:14:05;31.40;65.70
21518;DHT22;61765;45.794;24.150;2022-08-19T20:18:12;31.30;66.00
21518;DHT22;61765;45.794;24.150;2022-08-19T20:22:18;31.10;66.10
21518;DHT22;61765;45.794;24.150;2022-08-19T20:26:27;30.90;66.40
21518;DHT22;61765;45.794;24.150;2022-08-19T20:30:35;31.00;66.20
21518;DHT22;61765;45.794;24.150;2022-08-19T20:34:47;30.90;66.20
21518;DHT22;61765;45.794;24.150;2022-08-19T20:38:53;30.80;66.40
21518;DHT22;61765;45.794;24.150;2022-08-19T20:43:01;30.80;66.40
21518;DHT22;61765;45.794;24.150;2022-08-19T20:47:10;30.70;66.70
21518;DHT22;61765;45.794;24.150;2022-08-19T20:51:16;30.70;66.90
21518;DHT22;61765;45.794;24.150;2022-08-19T20:55:21;30.60;67.30
21518;DHT22;61765;45.794;24.150;2022-08-19T20:59:30;30.40;68.00
21518;DHT22;61765;45.794;24.150;2022-08-19T21:03:37;30.50;68.30
21518;DHT22;61765;45.794;24.150;2022-08-19T21:07:44;30.00;69.20
21518;DHT22;61765;45.794;24.150;2022-08-19T21:11:49;30.00;69.60
21518;DHT22;61765;45.794;24.150;2022-08-19T21:15:58;30.00;69.30
21518;DHT22;61765;45.794;24.150;2022-08-19T21:20:07;30.00;69.10
21518;DHT22;61765;45.794;24.150;2022-08-19T21:24:13;29.70;69.70
21518;DHT22;61765;45.794;24.150;2022-08-19T21:28:18;29.60;70.30
21518;DHT22;61765;45.794;24.150;2022-08-19T21:32:42;29.70;70.10
21518;DHT22;61765;45.794;24.150;2022-08-19T21:36:53;29.50;70.40
21518;DHT22;61765;45.794;24.150;2022-08-19T21:41:01;29.20;71.60
21518;DHT22;61765;45.794;24.150;2022-08-19T21:45:08;29.00;71.90
21518;DHT22;61765;45.794;24.150;2022-08-19T21:49:17;29.00;72.10
21518;DHT22;61765;45.794;24.150;2022-08-19T21:53:22;28.90;72.80
21518;DHT22;61765;45.794;24.150;2022-08-19T21:57:36;29.00;72.50
21518;DHT22;61765;45.794;24.150;2022-08-19T22:01:42;29.20;72.90
21518;DHT22;61765;45.794;24.150;2022-08-19T22:05:57;29.10;72.90
21518;DHT22;61765;45.794;24.150;2022-08-19T22:10:04;29.00;73.70
21518;DHT22;61765;45.794;24.150;2022-08-19T22:14:10;29.00;73.80
21518;DHT22;61765;45.794;24.150;2022-08-19T22:18:16;29.00;74.10
21518;DHT22;61765;45.794;24.150;2022-08-19T22:22:25;28.60;74.80
21518;DHT22;61765;45.794;24.150;2022-08-19T22:26:31;28.50;75.50
21518;DHT22;61765;45.794;24.150;2022-08-19T22:30:38;28.30;75.90
21518;DHT22;61765;45.794;24.150;2022-08-19T22:34:44;28.60;75.80
21518;DHT22;61765;45.794;24.150;2022-08-19T22:38:52;28.60;75.20
21518;DHT22;61765;45.794;24.150;2022-08-19T22:42:58;28.60;75.30
21518;DHT22;61765;45.794;24.150;2022-08-19T22:47:05;28.60;75.20
21518;DHT22;61765;45.794;24.150;2022-08-19T22:51:11;28.60;75.10
21518;DHT22;61765;45.794;24.150;2022-08-19T22:55:34;28.60;75.40
21518;DHT22;61765;45.794;24.150;2022-08-19T22:59:39;28.40;75.70
21518;DHT22;61765;45.794;24.150;2022-08-19T23:03:45;28.50;75.70
21518;DHT22;61765;45.794;24.150;2022-08-19T23:07:51;28.50;75.60
21518;DHT22;61765;45.794;24.150;2022-08-19T23:12:01;28.50;75.40
21518;DHT22;61765;45.794;24.150;2022-08-19T23:16:07;28.60;75.20
21518;DHT22;61765;45.794;24.150;2022-08-19T23:20:13;28.70;75.30
21518;DHT22;61765;45.794;24.150;2022-08-19T23:24:19;28.80;75.10
21518;DHT22;61765;45.794;24.150;2022-08-19T23:28:27;28.80;75.10
21518;DHT22;61765;45.794;24.150;2022-08-19T23:32:45;28.80;75.10
21518;DHT22;61765;45.794;24.150;2022-08-19T23:36:50;28.70;74.80
21518;DHT22;61765;45.794;24.150;2022-08-19T23:40:58;28.80;75.00
21518;DHT22;61765;45.794;24.150;2022-08-19T23:45:08;28.80;75.10
21518;DHT22;61765;45.794;24.150;2022-08-19T23:49:13;28.80;75.10
21518;DHT22;61765;45.794;24.150;2022-08-19T23:53:19;28.80;74.80
21518;DHT22;61765;45.794;24.150;2022-08-19T23:57:24;28.70;74.90
